Terminal Aerodrome Forecast
Issued by NWS

Home | Current Version | Previous Version | Text Only | Print | Product List | Glossary On
Versions: 1 2 3 4 5 6 7 8 9 10 11 12 13 14 15 16 17
000
FTUS43 KEAX 201900 AAA
TAFSTJ
TAF AMD
KSTJ 201916Z 2019/2118 20008KT P6SM OVC015
     FM210800 19010KT 2SM BR OVC004
     FM211500 19012KT 5SM BR OVC030=

USA.gov is the U.S. government's official web portal to all federal, state and local government web resources and services.